createdAt,value
2023-02-17T00:01:21.986Z,31.55
2023-02-17T00:03:50.412Z,32.72
2023-02-17T00:06:20.016Z,31.83
2023-02-17T00:08:48.077Z,32.80
2023-02-17T00:11:15.840Z,28.70
2023-02-17T00:13:42.766Z,27.50
2023-02-17T00:16:22.617Z,23.45
2023-02-17T00:18:55.804Z,22.83
2023-02-17T00:21:24.975Z,19.80
2023-02-17T00:23:53.182Z,21.08
2023-02-17T00:26:21.021Z,20.10
2023-02-17T00:28:48.762Z,18.67
2023-02-17T00:31:22.085Z,19.85
2023-02-17T00:33:49.124Z,18.57
2023-02-17T00:36:19.407Z,19.58
2023-02-17T00:38:48.036Z,18.48
2023-02-17T00:41:15.959Z,18.80
2023-02-17T00:43:42.729Z,19.00
2023-02-17T00:46:09.631Z,18.83
2023-02-17T00:48:36.471Z,17.98
2023-02-17T00:51:03.564Z,19.08
2023-02-17T00:53:30.363Z,18.00
2023-02-17T00:55:57.150Z,18.73
2023-02-17T00:58:24.840Z,17.33
2023-02-17T01:00:51.666Z,17.38
2023-02-17T01:03:19.256Z,17.23
2023-02-17T01:05:48.524Z,16.77
2023-02-17T01:08:17.068Z,15.93
2023-02-17T01:10:46.084Z,17.08
2023-02-17T01:13:15.274Z,16.80
2023-02-17T01:15:48.803Z,17.73
2023-02-17T01:18:16.866Z,16.30
2023-02-17T01:20:44.153Z,16.98
2023-02-17T01:23:12.125Z,16.17
2023-02-17T01:25:45.714Z,16.77
2023-02-17T01:28:20.435Z,16.00
2023-02-17T01:30:48.480Z,16.73
2023-02-17T01:33:15.286Z,16.23
2023-02-17T01:35:42.338Z,16.08
2023-02-17T01:38:09.125Z,16.58
2023-02-17T01:40:35.938Z,16.08
2023-02-17T01:43:03.070Z,15.05
2023-02-17T01:45:39.926Z,15.45
2023-02-17T01:48:12.354Z,16.13
2023-02-17T01:50:48.590Z,15.30
2023-02-17T01:53:23.219Z,14.65
2023-02-17T01:55:50.831Z,14.90
2023-02-17T01:58:21.306Z,15.88
2023-02-17T02:00:52.620Z,14.77
2023-02-17T02:03:19.758Z,14.07
2023-02-17T02:05:46.867Z,13.50
2023-02-17T02:08:15.201Z,14.73
2023-02-17T02:10:42.029Z,15.10
2023-02-17T02:13:09.244Z,15.32
2023-02-17T02:16:13.291Z,14.13
2023-02-17T02:19:47.271Z,13.68
2023-02-17T02:23:07.323Z,14.18
2023-02-17T02:26:12.976Z,14.43
2023-02-17T02:29:12.944Z,14.75
2023-02-17T02:32:20.743Z,13.85
2023-02-17T02:35:16.774Z,13.82
2023-02-17T02:37:56.410Z,14.20
2023-02-17T02:40:29.841Z,14.23
2023-02-17T02:43:00.931Z,14.47
2023-02-17T02:45:27.845Z,15.13
2023-02-17T02:47:57.679Z,14.63
2023-02-17T02:50:49.678Z,15.18
2023-02-17T02:54:05.469Z,14.85
2023-02-17T02:56:54.006Z,14.50
2023-02-17T02:59:52.431Z,15.70
2023-02-17T03:02:38.071Z,14.82
2023-02-17T03:05:26.174Z,14.85
2023-02-17T03:07:59.805Z,14.10
2023-02-17T03:10:26.927Z,15.82
2023-02-17T03:12:54.169Z,15.32
2023-02-17T03:15:33.267Z,16.10
2023-02-17T03:18:02.418Z,14.73
2023-02-17T03:20:36.123Z,15.80
2023-02-17T03:23:04.562Z,16.65
2023-02-17T03:25:31.500Z,15.05
2023-02-17T03:27:58.276Z,14.18
2023-02-17T03:30:25.055Z,13.68
2023-02-17T03:32:51.870Z,15.27
2023-02-17T03:35:18.722Z,14.27
2023-02-17T03:37:45.652Z,14.35
2023-02-17T03:40:12.432Z,14.52
2023-02-17T03:42:39.205Z,13.45
2023-02-17T03:45:06.382Z,13.77
2023-02-17T03:47:33.136Z,14.52
2023-02-17T03:49:59.904Z,13.43
2023-02-17T03:52:26.682Z,13.95
2023-02-17T03:54:53.492Z,14.50
2023-02-17T03:57:20.343Z,13.93
2023-02-17T03:59:47.107Z,13.80
2023-02-17T04:02:13.889Z,12.93
2023-02-17T04:04:40.711Z,14.38
2023-02-17T04:07:07.497Z,13.23
2023-02-17T04:09:34.252Z,13.93
2023-02-17T04:12:01.020Z,12.85
2023-02-17T04:14:27.797Z,12.85
2023-02-17T04:16:54.588Z,13.40
2023-02-17T04:19:21.433Z,12.55
2023-02-17T04:21:48.213Z,13.07
2023-02-17T04:24:15.002Z,12.18
2023-02-17T04:26:41.810Z,12.57
2023-02-17T04:29:08.588Z,12.60
2023-02-17T04:31:35.518Z,11.82
2023-02-17T04:34:02.603Z,12.70
2023-02-17T04:36:29.334Z,12.20
2023-02-17T04:38:56.097Z,10.90
2023-02-17T04:41:22.856Z,11.20
2023-02-17T04:43:49.619Z,11.93
2023-02-17T04:46:16.507Z,11.23
2023-02-17T04:48:43.316Z,11.73
2023-02-17T04:51:10.076Z,11.45
2023-02-17T04:53:36.849Z,11.50
2023-02-17T04:56:04.123Z,10.75
2023-02-17T04:58:31.126Z,11.18
2023-02-17T05:00:59.625Z,11.77
2023-02-17T05:03:26.614Z,10.50
2023-02-17T05:05:53.389Z,10.43
2023-02-17T05:08:20.174Z,11.00
2023-02-17T05:10:46.927Z,11.13
2023-02-17T05:13:13.796Z,11.48
2023-02-17T05:15:40.598Z,9.85
2023-02-17T05:18:07.379Z,11.05
2023-02-17T05:20:34.175Z,10.88
2023-02-17T05:23:00.944Z,10.15
2023-02-17T05:25:27.857Z,10.55
2023-02-17T05:27:54.663Z,10.98
2023-02-17T05:30:21.610Z,10.88
2023-02-17T05:32:48.650Z,9.93
2023-02-17T05:35:15.451Z,10.15
2023-02-17T05:37:42.246Z,10.32
2023-02-17T05:40:09.716Z,9.98
2023-02-17T05:42:36.484Z,10.77
2023-02-17T05:45:04.096Z,10.95
2023-02-17T05:47:30.947Z,10.77
2023-02-17T05:49:57.725Z,10.90
2023-02-17T05:52:24.487Z,10.63
2023-02-17T05:54:51.265Z,10.38
2023-02-17T05:57:18.017Z,11.23
2023-02-17T05:59:44.784Z,11.20
2023-02-17T06:02:11.589Z,11.88
2023-02-17T06:04:38.695Z,11.48
2023-02-17T06:07:05.520Z,11.80
2023-02-17T06:09:32.283Z,11.57
2023-02-17T06:11:59.094Z,12.43
2023-02-17T06:14:25.869Z,12.32
2023-02-17T06:16:53.678Z,13.65
2023-02-17T06:19:21.908Z,12.95
2023-02-17T06:21:48.699Z,12.98
2023-02-17T06:24:15.807Z,12.90
2023-02-17T06:26:42.608Z,13.13
2023-02-17T06:29:09.409Z,14.43
2023-02-17T06:31:36.496Z,13.82
2023-02-17T06:34:06.138Z,13.93
2023-02-17T06:36:33.543Z,14.10
2023-02-17T06:39:00.366Z,14.18
2023-02-17T06:41:27.210Z,13.60
2023-02-17T06:43:54.033Z,14.63
2023-02-17T06:46:20.874Z,15.15
2023-02-17T06:48:47.648Z,16.23
2023-02-17T06:51:14.487Z,15.75
2023-02-17T06:53:41.292Z,15.45
2023-02-17T06:56:08.196Z,15.20
2023-02-17T06:58:37.441Z,16.23
2023-02-17T07:01:04.928Z,15.75
2023-02-17T07:03:32.796Z,16.45
2023-02-17T07:06:00.115Z,15.98
2023-02-17T07:08:26.936Z,16.35
2023-02-17T07:10:53.721Z,15.88
2023-02-17T07:13:20.489Z,17.20
2023-02-17T07:15:47.297Z,16.83
2023-02-17T07:18:14.089Z,18.67
2023-02-17T07:20:40.836Z,17.40
2023-02-17T07:23:07.969Z,17.15
2023-02-17T07:25:34.754Z,17.20
2023-02-17T07:28:01.525Z,17.40
2023-02-17T07:30:28.371Z,18.17
2023-02-17T07:32:55.174Z,18.73
2023-02-17T07:35:22.206Z,17.15
2023-02-17T07:37:49.080Z,18.23
2023-02-17T07:40:15.849Z,15.48
2023-02-17T07:42:42.646Z,15.60
2023-02-17T07:45:09.507Z,16.33
2023-02-17T07:47:36.277Z,15.68
2023-02-17T07:50:03.127Z,15.80
2023-02-17T07:52:29.876Z,16.00
2023-02-17T07:54:56.696Z,16.63
2023-02-17T07:57:23.447Z,16.58
2023-02-17T07:59:50.211Z,17.20
2023-02-17T08:02:17.074Z,17.73
2023-02-17T08:04:44.245Z,17.55
2023-02-17T08:07:11.072Z,18.55
2023-02-17T08:09:56.269Z,17.40
2023-02-17T08:12:41.489Z,17.27
2023-02-17T08:15:11.135Z,17.05
2023-02-17T08:17:38.143Z,17.35
2023-02-17T08:20:09.184Z,17.65
2023-02-17T08:22:36.797Z,17.30
2023-02-17T08:25:05.925Z,19.60
2023-02-17T08:27:32.720Z,18.80
2023-02-17T08:29:59.650Z,18.35
2023-02-17T08:32:26.503Z,17.63
2023-02-17T08:34:56.665Z,18.33
2023-02-17T08:37:23.524Z,18.52
2023-02-17T08:39:50.366Z,18.60
2023-02-17T08:42:17.990Z,16.95
2023-02-17T08:44:44.918Z,16.60
2023-02-17T08:47:11.824Z,16.42
2023-02-17T08:49:38.633Z,15.98
2023-02-17T08:52:05.445Z,16.17
2023-02-17T08:54:32.787Z,15.63
2023-02-17T08:56:59.866Z,15.05
2023-02-17T08:59:26.903Z,14.95
2023-02-17T09:01:53.772Z,15.10
2023-02-17T09:04:20.632Z,15.00
2023-02-17T09:06:51.479Z,15.05
2023-02-17T09:09:22.563Z,14.80
2023-02-17T09:11:49.635Z,13.05
2023-02-17T09:14:16.542Z,13.45
2023-02-17T09:16:43.452Z,12.75
2023-02-17T09:19:10.286Z,12.57
2023-02-17T09:21:37.070Z,12.60
2023-02-17T09:24:04.095Z,12.35
2023-02-17T09:26:30.867Z,12.70
2023-02-17T09:28:58.064Z,12.20
2023-02-17T09:31:29.825Z,11.55
2023-02-17T09:33:58.679Z,11.57
2023-02-17T09:36:29.834Z,11.07
2023-02-17T09:38:57.157Z,10.93
2023-02-17T09:41:38.124Z,9.90
2023-02-17T09:44:25.879Z,9.13
2023-02-17T09:47:12.482Z,9.55
2023-02-17T09:49:46.950Z,9.43
2023-02-17T09:55:15.610Z,8.13
2023-02-17T09:57:58.210Z,7.63
2023-02-17T10:00:32.260Z,8.10
2023-02-17T10:03:18.180Z,7.63
2023-02-17T10:06:36.914Z,7.35
2023-02-17T10:09:26.677Z,7.90
2023-02-17T10:12:04.173Z,7.65
2023-02-17T10:14:56.261Z,8.02
2023-02-17T10:17:52.387Z,8.15
2023-02-17T10:20:50.061Z,8.48
2023-02-17T10:23:24.073Z,8.88
2023-02-17T10:26:06.299Z,7.95
2023-02-17T10:29:30.893Z,8.40
2023-02-17T10:32:22.257Z,8.95
2023-02-17T10:35:15.658Z,9.13
2023-02-17T10:38:46.693Z,9.68
2023-02-17T10:41:20.499Z,10.10
2023-02-17T10:43:48.901Z,9.55
2023-02-17T10:46:27.591Z,11.45
2023-02-17T10:48:55.970Z,10.95
2023-02-17T10:51:27.677Z,11.05
2023-02-17T10:54:16.344Z,10.73
2023-02-17T10:56:48.363Z,11.88
2023-02-17T10:59:22.376Z,12.90
2023-02-17T11:01:49.496Z,14.32
2023-02-17T11:04:16.335Z,13.02
2023-02-17T11:06:51.015Z,13.27
2023-02-17T11:09:28.653Z,13.70
2023-02-17T11:12:04.234Z,14.55
2023-02-17T11:14:33.619Z,14.38
2023-02-17T11:17:23.402Z,14.98
2023-02-17T11:20:04.470Z,14.82
2023-02-17T11:22:36.011Z,15.43
2023-02-17T11:25:18.753Z,15.05
2023-02-17T11:28:01.925Z,15.32
2023-02-17T11:30:32.967Z,15.00
2023-02-17T11:33:01.061Z,16.25
2023-02-17T11:35:36.820Z,16.17
2023-02-17T11:38:12.765Z,16.45
2023-02-17T11:40:39.651Z,15.70
2023-02-17T11:43:06.900Z,15.43
2023-02-17T11:45:46.052Z,15.40
2023-02-17T11:48:44.363Z,14.57
2023-02-17T11:51:39.971Z,15.00
2023-02-17T11:54:21.129Z,14.93
2023-02-17T11:57:24.537Z,14.25
2023-02-17T12:00:22.972Z,15.00
2023-02-17T12:03:23.607Z,13.82
2023-02-17T12:06:18.277Z,14.30
2023-02-17T12:09:16.569Z,13.68
2023-02-17T12:12:06.205Z,12.40
2023-02-17T12:15:03.624Z,13.00
2023-02-17T12:17:38.178Z,11.55
2023-02-17T12:20:31.757Z,12.05
2023-02-17T12:23:35.700Z,11.00
2023-02-17T12:26:36.646Z,10.68
2023-02-17T12:29:52.173Z,10.98
2023-02-17T12:32:42.597Z,10.25
2023-02-17T12:35:20.077Z,10.45
2023-02-17T12:37:58.372Z,11.30
2023-02-17T12:40:34.343Z,10.95
2023-02-17T12:43:46.251Z,10.70
2023-02-17T12:46:24.221Z,9.80
2023-02-17T12:49:09.515Z,9.07
2023-02-17T12:51:49.878Z,8.32
2023-02-17T12:54:37.032Z,8.18
2023-02-17T12:57:56.064Z,7.88
2023-02-17T13:00:29.470Z,8.13
2023-02-17T13:03:00.452Z,7.28
2023-02-17T13:05:51.016Z,7.35
2023-02-17T13:08:37.864Z,6.57
2023-02-17T13:11:11.481Z,6.88
2023-02-17T13:13:39.304Z,6.88
2023-02-17T13:16:12.849Z,6.53
2023-02-17T13:18:50.359Z,7.03
2023-02-17T13:21:32.499Z,6.13
2023-02-17T13:24:26.144Z,5.65
2023-02-17T13:26:52.912Z,6.40
2023-02-17T13:29:25.624Z,6.43
2023-02-17T13:31:59.447Z,6.63
2023-02-17T13:34:45.281Z,6.38
2023-02-17T13:37:44.065Z,6.50
2023-02-17T13:40:17.794Z,6.38
2023-02-17T13:42:48.138Z,6.85
2023-02-17T13:45:27.426Z,6.45
2023-02-17T13:48:17.917Z,6.43
2023-02-17T13:50:48.789Z,6.00
2023-02-17T13:53:41.596Z,7.00
2023-02-17T13:56:29.006Z,7.35
2023-02-17T13:59:11.675Z,7.50
2023-02-17T14:01:42.354Z,6.97
2023-02-17T14:04:31.224Z,7.07
2023-02-17T14:07:00.989Z,8.00
2023-02-17T14:09:31.009Z,6.57
2023-02-17T14:12:01.896Z,7.22
2023-02-17T14:14:38.291Z,7.40
2023-02-17T14:17:32.646Z,8.02
2023-02-17T14:20:00.785Z,7.68
2023-02-17T14:22:34.907Z,7.82
2023-02-17T14:25:14.395Z,7.78
2023-02-17T14:27:43.961Z,8.05
2023-02-17T14:30:34.103Z,7.35
2023-02-17T14:33:22.520Z,7.32
2023-02-17T14:35:58.670Z,7.72
2023-02-17T14:38:32.863Z,7.10
2023-02-17T14:41:01.019Z,7.22
2023-02-17T14:43:28.250Z,8.15
2023-02-17T14:45:55.045Z,8.27
2023-02-17T14:48:21.986Z,8.07
2023-02-17T14:50:49.066Z,8.40
2023-02-17T14:53:28.802Z,8.65
2023-02-17T14:56:08.784Z,8.32
2023-02-17T14:58:35.833Z,8.60
2023-02-17T15:01:02.607Z,9.05
2023-02-17T15:03:29.425Z,9.15
2023-02-17T15:05:56.423Z,9.30
2023-02-17T15:08:33.222Z,8.88
2023-02-17T15:11:00.743Z,7.75
2023-02-17T15:13:27.556Z,7.63
2023-02-17T15:15:54.460Z,7.72
2023-02-17T15:18:21.430Z,7.32
2023-02-17T15:20:50.793Z,6.80
2023-02-17T15:23:25.406Z,6.43
2023-02-17T15:25:54.651Z,6.85
2023-02-17T15:28:22.213Z,6.43
2023-02-17T15:30:55.120Z,5.72
2023-02-17T15:33:23.907Z,5.20
2023-02-17T15:35:53.560Z,5.20
2023-02-17T15:38:21.507Z,5.55
2023-02-17T15:40:48.300Z,5.20
2023-02-17T15:43:22.333Z,4.72
2023-02-17T15:45:49.210Z,5.03
2023-02-17T15:48:30.536Z,4.70
2023-02-17T15:50:57.448Z,4.25
2023-02-17T15:53:24.335Z,4.38
2023-02-17T15:55:52.399Z,4.15
2023-02-17T15:58:21.610Z,4.25
2023-02-17T16:00:50.247Z,3.60
2023-02-17T16:03:17.875Z,3.72
2023-02-17T16:05:44.844Z,3.40
2023-02-17T16:08:12.125Z,3.75
2023-02-17T16:10:42.212Z,3.67
2023-02-17T16:13:14.685Z,3.33
2023-02-17T16:15:42.555Z,3.42
2023-02-17T16:18:21.638Z,3.97
2023-02-17T16:20:49.041Z,3.75
2023-02-17T16:23:15.856Z,4.50
2023-02-17T16:25:45.444Z,3.65
2023-02-17T16:28:18.915Z,3.88
2023-02-17T16:30:46.365Z,3.60
2023-02-17T16:33:13.879Z,4.00
2023-02-17T16:35:42.425Z,4.28
2023-02-17T16:38:16.383Z,4.25
2023-02-17T16:40:52.308Z,4.45
2023-02-17T16:43:27.586Z,4.68
2023-02-17T16:45:58.551Z,4.70
2023-02-17T16:48:29.702Z,4.75
2023-02-17T16:50:56.981Z,4.47
2023-02-17T16:53:23.757Z,4.35
2023-02-17T16:55:53.295Z,4.32
2023-02-17T16:58:26.379Z,4.38
2023-02-17T17:00:55.751Z,4.55
2023-02-17T17:03:22.674Z,4.53
2023-02-17T17:05:51.762Z,5.10
2023-02-17T17:08:20.627Z,5.47
2023-02-17T17:10:49.253Z,5.25
2023-02-17T17:13:16.039Z,5.30
2023-02-17T17:15:45.866Z,4.97
2023-02-17T17:18:21.227Z,4.90
2023-02-17T17:20:48.538Z,4.60
2023-02-17T17:23:16.529Z,4.88
2023-02-17T17:25:46.496Z,4.90
2023-02-17T17:28:15.957Z,4.50
2023-02-17T17:30:43.009Z,5.22
2023-02-17T17:33:09.798Z,5.65
2023-02-17T17:35:37.172Z,5.60
2023-02-17T17:38:04.621Z,4.13
2023-02-17T17:40:48.550Z,4.22
2023-02-17T17:43:20.902Z,3.55
2023-02-17T17:45:49.524Z,3.53
2023-02-17T17:48:18.009Z,3.15
2023-02-17T17:50:48.845Z,3.03
2023-02-17T17:53:15.614Z,3.45
2023-02-17T17:55:42.423Z,3.90
2023-02-17T17:58:09.255Z,4.22
2023-02-17T18:00:36.288Z,3.17
2023-02-17T18:03:03.988Z,3.65
2023-02-17T18:05:30.991Z,3.75
2023-02-17T18:07:57.808Z,5.20
2023-02-17T18:10:24.684Z,3.38
2023-02-17T18:12:51.645Z,3.13
2023-02-17T18:15:19.010Z,2.47
2023-02-17T18:17:48.045Z,2.35
2023-02-17T18:20:15.091Z,1.98
2023-02-17T18:22:41.995Z,1.92
2023-02-17T18:25:10.062Z,2.28
2023-02-17T18:27:39.681Z,1.65
2023-02-17T18:30:08.101Z,1.70
2023-02-17T18:32:35.119Z,2.38
2023-02-17T18:35:02.224Z,1.52
2023-02-17T18:37:29.072Z,1.88
2023-02-17T18:39:56.259Z,2.03
2023-02-17T18:42:23.998Z,2.17
2023-02-17T18:44:54.004Z,2.22
2023-02-17T18:47:22.570Z,2.03
2023-02-17T18:49:49.522Z,2.55
2023-02-17T18:52:16.389Z,2.67
2023-02-17T18:54:45.114Z,3.15
2023-02-17T18:57:12.443Z,2.10
2023-02-17T18:59:39.231Z,2.45
2023-02-17T19:02:08.322Z,2.20
2023-02-17T19:04:35.760Z,1.90
2023-02-17T19:07:04.352Z,2.78
2023-02-17T19:09:37.093Z,2.00
2023-02-17T19:12:06.083Z,1.77
2023-02-17T19:14:33.625Z,2.20
2023-02-17T19:17:00.440Z,1.98
2023-02-17T19:19:30.255Z,1.80
2023-02-17T19:21:57.607Z,2.58
2023-02-17T19:24:24.342Z,1.77
2023-02-17T19:26:51.273Z,1.67
2023-02-17T19:29:18.098Z,1.52
2023-02-17T19:31:44.910Z,1.90
2023-02-17T19:34:12.147Z,1.65
2023-02-17T19:36:38.943Z,1.58
2023-02-17T19:39:05.937Z,1.75
2023-02-17T19:41:34.411Z,2.25
2023-02-17T19:44:02.662Z,2.25
2023-02-17T19:46:29.759Z,2.17
2023-02-17T19:48:56.557Z,2.13
2023-02-17T19:51:23.354Z,1.33
2023-02-17T19:53:50.287Z,1.92
2023-02-17T19:56:21.229Z,1.73
2023-02-17T19:58:49.052Z,2.53
2023-02-17T20:01:29.482Z,2.08
2023-02-17T20:03:57.803Z,2.00
2023-02-17T20:06:32.202Z,2.42
2023-02-17T20:11:29.945Z,2.67
2023-02-17T20:14:01.342Z,2.78
2023-02-17T20:16:29.260Z,2.63
2023-02-17T20:18:56.145Z,2.58
2023-02-17T20:21:28.000Z,2.22
2023-02-17T20:23:55.651Z,2.63
2023-02-17T20:26:30.401Z,2.85
2023-02-17T20:28:58.461Z,3.97
2023-02-17T20:31:26.678Z,2.90
2023-02-17T20:33:53.881Z,2.60
2023-02-17T20:36:22.186Z,5.00
2023-02-17T20:38:50.047Z,4.10
2023-02-17T20:41:20.378Z,2.70
2023-02-17T20:43:47.648Z,2.28
2023-02-17T20:46:26.553Z,2.20
2023-02-17T20:48:54.286Z,2.83
2023-02-17T20:51:21.466Z,3.22
2023-02-17T20:53:48.523Z,3.30
2023-02-17T20:56:20.653Z,3.22
2023-02-17T20:58:48.495Z,4.60
2023-02-17T21:01:15.371Z,3.30
2023-02-17T21:03:42.245Z,2.80
2023-02-17T21:06:23.303Z,3.28
2023-02-17T21:08:55.962Z,3.20
2023-02-17T21:11:22.896Z,2.05
2023-02-17T21:13:50.069Z,2.78
2023-02-17T21:16:21.792Z,1.90
2023-02-17T21:18:48.584Z,2.15
2023-02-17T21:21:15.899Z,2.35
2023-02-17T21:23:43.153Z,1.65
2023-02-17T21:26:11.775Z,2.00
2023-02-17T21:28:38.983Z,1.92
2023-02-17T21:31:06.347Z,1.70
2023-02-17T21:33:33.819Z,1.67
2023-02-17T21:36:05.794Z,1.63
2023-02-17T21:38:32.694Z,1.80
2023-02-17T21:41:10.462Z,1.83
2023-02-17T21:43:57.953Z,1.80
2023-02-17T21:46:26.195Z,1.77
2023-02-17T21:48:53.585Z,2.45
2023-02-17T21:51:20.616Z,2.80
2023-02-17T21:53:47.455Z,3.13
2023-02-17T21:56:14.550Z,1.65
2023-02-17T21:58:46.925Z,1.85
2023-02-17T22:01:14.109Z,1.70
2023-02-17T22:03:40.962Z,2.40
2023-02-17T22:06:29.114Z,2.55
2023-02-17T22:08:57.673Z,2.35
2023-02-17T22:11:31.622Z,2.05
2023-02-17T22:14:02.172Z,2.33
2023-02-17T22:16:35.051Z,1.90
2023-02-17T22:19:03.865Z,1.65
2023-02-17T22:21:30.622Z,2.08
2023-02-17T22:23:59.143Z,2.05
2023-02-17T22:26:27.127Z,2.30
2023-02-17T22:28:54.945Z,1.70
2023-02-17T22:31:25.527Z,1.88
2023-02-17T22:33:52.408Z,2.53
2023-02-17T22:36:22.630Z,2.15
2023-02-17T22:38:50.491Z,2.53
2023-02-17T22:41:22.641Z,2.30
2023-02-17T22:43:49.932Z,1.90
2023-02-17T22:46:18.643Z,1.85
2023-02-17T22:48:47.087Z,2.03
2023-02-17T22:51:17.365Z,1.75
2023-02-17T22:53:44.725Z,1.83
2023-02-17T22:56:11.859Z,2.10
2023-02-17T22:58:39.521Z,1.88
2023-02-17T23:01:16.601Z,1.52
2023-02-17T23:03:44.849Z,1.80
2023-02-17T23:06:18.984Z,1.85
2023-02-17T23:08:46.944Z,2.03
2023-02-17T23:11:17.856Z,1.85
2023-02-17T23:13:45.523Z,1.85
2023-02-17T23:16:21.312Z,1.52
2023-02-17T23:18:48.148Z,1.17
2023-02-17T23:21:14.915Z,1.25
2023-02-17T23:23:41.736Z,2.15
2023-02-17T23:26:08.792Z,1.48
2023-02-17T23:28:35.740Z,2.35
2023-02-17T23:31:02.600Z,1.55
2023-02-17T23:33:29.391Z,2.58
2023-02-17T23:35:56.140Z,2.22
2023-02-17T23:38:22.944Z,1.90
2023-02-17T23:40:51.957Z,1.23
2023-02-17T23:43:19.833Z,1.25
2023-02-17T23:45:46.664Z,2.00
2023-02-17T23:48:13.813Z,1.85
2023-02-17T23:50:40.718Z,2.30
2023-02-17T23:53:08.251Z,1.30
2023-02-17T23:55:35.095Z,1.88
2023-02-17T23:58:01.852Z,1.95
